首页
METAR-TAF:

METAR-TAF

机场 :

Kapuskasing, 安大略省, 加拿大

纬度: 49-25N, 经度: 082-28W, 海拔: 227米

当前天气观测

该预报发布于41分钟前的19:00 UTC
风速13节,风向,有时为20节阵风
温度 4°C
湿度 52%
气压 1021 hPa
能見度: 24.1公里
多云层高于3900英尺

METAR: CYYU 021900Z 01013G20KT 15SM BKN039 04/M05 A3016 RMK SC6 SLP227

时间: 15:41 (19:41 UTC)

预报

该预报发布于6小时和3分钟前的13:38 UTC
预报有效从02日的 14点(UTC)到 03日的 02点(UTC)
风速6节,风向北转西北
能見度: 10公里
少量云层高于600英尺
几率 30%
从 02日的 14点(UTC)到 02日的 16点(UTC)
能見度: 3.2公里
多云层高于600英尺
轻雾
从 02日的 1900点(UTC)
风速10节,风向北转西北
能見度: 10公里
多云层高于4000英尺
从 03日的 0000点(UTC)
风速8节,风向
能見度: 10公里
散云层高于2000英尺
阴天层高于3000英尺
短暂存在
从 03日的 00点(UTC)到 03日的 02点(UTC)
能見度: 9.7公里
阴天层高于2000英尺
小雨, 雪, 轻雾

TAF: CYYU 021338Z 0214/0302 33006KT P6SM FEW006 PROB30 0214/0216 2SM BR BKN006 FM021900 34010KT P6SM BKN040 FM030000 36008KT P6SM SCT020 OVC030 TEMPO 0300/0302 6SM -RASN BR OVC020 RMK NXT FCST BY 022000Z

超过4000个机场的气象观测和天气预报(METAR&TAF报告)。

可查询的气象台以黄色和红色小点在地图上表示。

将鼠标移到小点上方,可查看气象台名称。

然后点击查看天气观测和预报。

如需切换地图:点击带黑十字的绿色按钮放大地图;点击带横线的绿色按钮缩小地图;或者点击绿色箭头查看邻近地区的地图。


METAR-TAF: